createdAt,value
2022-10-18T00:01:37.574Z,77.20
2022-10-18T00:05:13.163Z,75.20
2022-10-18T00:26:41.409Z,74.20
2022-10-18T00:29:17.596Z,60.00
2022-10-18T00:32:42.077Z,74.60
2022-10-18T00:36:30.241Z,73.80
2022-10-18T00:52:24.771Z,69.00
2022-10-18T01:04:31.774Z,60.40
2022-10-18T01:07:12.683Z,73.00
2022-10-18T01:27:06.840Z,76.40
2022-10-18T01:38:48.576Z,74.80
2022-10-18T01:55:38.893Z,80.80
2022-10-18T01:58:22.532Z,81.00
2022-10-18T02:14:06.114Z,77.20
2022-10-18T02:30:50.862Z,68.20
2022-10-18T02:37:14.003Z,66.80
2022-10-18T02:49:31.251Z,70.40
2022-10-18T02:52:03.014Z,62.20
2022-10-18T03:07:28.591Z,63.80
2022-10-18T03:14:44.143Z,62.20
2022-10-18T03:17:58.545Z,66.75
2022-10-18T03:25:12.633Z,61.50
2022-10-18T03:41:19.243Z,61.50
2022-10-18T03:44:19.539Z,62.75
2022-10-18T03:51:13.661Z,58.80
2022-10-18T04:16:47.646Z,52.50
2022-10-18T04:46:49.589Z,61.75
2022-10-18T04:49:21.569Z,62.25
2022-10-18T04:53:16.733Z,57.75
2022-10-18T05:05:17.055Z,54.00
2022-10-18T05:07:48.866Z,57.25
2022-10-18T05:15:03.938Z,57.00
2022-10-18T05:35:04.398Z,53.25
2022-10-18T05:47:11.360Z,49.25
2022-10-18T05:49:43.154Z,42.25
2022-10-18T06:01:11.578Z,68.80
2022-10-18T06:13:11.743Z,193.00
2022-10-18T06:15:43.730Z,162.25
2022-10-18T06:31:54.683Z,213.33
2022-10-18T06:34:26.779Z,235.60
2022-10-18T06:41:42.639Z,216.50
2022-10-18T06:48:59.181Z,146.33
2022-10-18T06:51:30.850Z,27.00
2022-10-18T06:54:31.271Z,45.25
2022-10-18T07:01:26.461Z,75.40
2022-10-18T07:18:29.038Z,52.40
2022-10-18T07:21:01.177Z,41.50
2022-10-18T07:46:02.772Z,69.20
2022-10-18T07:48:35.125Z,55.25
2022-10-18T07:55:50.371Z,53.25
2022-10-18T08:03:06.842Z,54.25
2022-10-18T08:10:22.205Z,55.25
2022-10-18T08:12:54.567Z,54.75
2022-10-18T08:24:43.083Z,53.25
2022-10-18T08:31:58.337Z,55.75
2022-10-18T08:34:30.298Z,52.25
2022-10-18T08:56:29.410Z,46.75
2022-10-18T09:08:15.789Z,44.00
2022-10-18T09:19:57.233Z,45.75
2022-10-18T09:26:48.455Z,53.00
2022-10-18T09:33:53.802Z,46.50
2022-10-18T09:36:29.536Z,40.50
2022-10-18T09:39:06.226Z,18.00
2022-10-18T09:41:45.054Z,40.25
2022-10-18T09:44:23.484Z,47.00
2022-10-18T09:47:00.551Z,46.25
2022-10-18T09:49:40.994Z,44.00
2022-10-18T09:52:20.620Z,42.25
2022-10-18T09:54:58.621Z,41.00
2022-10-18T09:57:35.565Z,42.00
2022-10-18T10:00:10.305Z,32.75
2022-10-18T10:02:42.645Z,46.00
2022-10-18T10:05:19.231Z,22.50
2022-10-18T10:07:52.401Z,46.00
2022-10-18T10:10:26.911Z,43.25
2022-10-18T10:13:09.087Z,45.75
2022-10-18T10:15:42.852Z,45.00
2022-10-18T10:18:23.540Z,42.50
2022-10-18T10:21:00.053Z,36.75
2022-10-18T10:23:34.551Z,42.50
2022-10-18T10:26:10.195Z,41.50
2022-10-18T10:28:47.835Z,42.25
2022-10-18T10:31:31.489Z,46.50
2022-10-18T10:34:06.248Z,42.00
2022-10-18T10:36:51.620Z,39.00
2022-10-18T10:39:24.673Z,40.75
2022-10-18T10:41:58.672Z,20.75
2022-10-18T10:44:33.898Z,38.80
2022-10-18T10:47:07.858Z,50.00
2022-10-18T10:49:51.105Z,31.00
2022-10-18T10:52:29.089Z,42.75
2022-10-18T10:55:23.539Z,37.25
2022-10-18T10:57:57.467Z,40.25
2022-10-18T11:00:46.783Z,40.20
2022-10-18T11:03:30.056Z,35.60
2022-10-18T11:06:03.249Z,37.60
2022-10-18T11:11:28.233Z,39.60
2022-10-18T11:14:25.415Z,41.00
2022-10-18T11:17:08.252Z,35.20
2022-10-18T11:19:52.369Z,37.80
2022-10-18T11:22:29.096Z,31.25
2022-10-18T11:25:03.039Z,28.20
2022-10-18T11:27:39.972Z,38.80
2022-10-18T11:30:34.530Z,36.80
2022-10-18T11:33:28.707Z,39.00
2022-10-18T11:36:19.045Z,31.80
2022-10-18T11:38:59.240Z,35.20
2022-10-18T11:41:42.813Z,29.00
2022-10-18T11:44:24.496Z,27.60
2022-10-18T11:47:08.122Z,35.00
2022-10-18T11:50:07.543Z,36.00
2022-10-18T11:52:53.300Z,39.00
2022-10-18T11:55:46.992Z,39.75
2022-10-18T11:58:50.185Z,41.50
2022-10-18T12:01:30.983Z,35.40
2022-10-18T12:04:11.328Z,43.60
2022-10-18T12:06:46.506Z,40.60
2022-10-18T12:09:28.339Z,40.75
2022-10-18T12:12:05.068Z,37.40
2022-10-18T12:14:43.973Z,39.00
2022-10-18T12:17:43.991Z,35.00
2022-10-18T12:20:23.686Z,31.50
2022-10-18T12:23:03.903Z,42.50
2022-10-18T12:25:40.264Z,39.00
2022-10-18T12:28:25.941Z,42.25
2022-10-18T12:31:09.240Z,40.50
2022-10-18T12:33:46.243Z,38.00
2022-10-18T12:36:36.431Z,37.00
2022-10-18T12:39:16.174Z,39.00
2022-10-18T12:41:51.488Z,40.25
2022-10-18T12:44:27.928Z,41.75
2022-10-18T12:47:03.571Z,44.00
2022-10-18T12:49:41.351Z,44.00
2022-10-18T12:52:26.419Z,37.50
2022-10-18T12:55:30.195Z,44.50
2022-10-18T12:58:23.076Z,42.25
2022-10-18T13:01:08.089Z,47.50
2022-10-18T13:03:57.859Z,44.00
2022-10-18T13:06:50.113Z,46.75
2022-10-18T13:09:24.997Z,55.25
2022-10-18T13:12:01.957Z,39.75
2022-10-18T13:15:20.445Z,44.75
2022-10-18T13:17:59.455Z,58.75
2022-10-18T13:20:40.972Z,56.25
2022-10-18T13:23:29.474Z,57.75
2022-10-18T13:26:14.814Z,61.50
2022-10-18T13:28:57.332Z,63.25
2022-10-18T13:31:39.792Z,61.50
2022-10-18T13:34:34.499Z,66.25
2022-10-18T13:37:10.170Z,63.75
2022-10-18T13:39:43.202Z,64.25
2022-10-18T13:42:35.221Z,55.25
2022-10-18T13:45:43.278Z,59.25
2022-10-18T13:48:52.867Z,60.00
2022-10-18T13:51:53.262Z,63.50
2022-10-18T13:54:54.505Z,64.00
2022-10-18T13:57:45.328Z,285.40
2022-10-18T14:00:40.274Z,568.60
2022-10-18T14:03:57.044Z,1016.80
2022-10-18T14:06:37.806Z,1059.60
2022-10-18T14:09:25.759Z,907.80
2022-10-18T14:12:18.091Z,962.00
2022-10-18T14:14:56.283Z,828.33
2022-10-18T14:20:24.794Z,690.80
2022-10-18T14:23:08.451Z,551.50
2022-10-18T14:25:41.536Z,477.75
2022-10-18T14:28:21.620Z,383.80
2022-10-18T14:31:01.101Z,311.50
2022-10-18T14:33:37.784Z,274.75
2022-10-18T14:36:16.102Z,229.00
2022-10-18T14:38:52.409Z,170.00
2022-10-18T14:41:27.454Z,160.75
2022-10-18T14:44:21.155Z,133.40
2022-10-18T14:46:55.639Z,150.40
2022-10-18T14:49:27.996Z,106.40
2022-10-18T14:52:01.524Z,146.40
2022-10-18T14:54:36.245Z,142.60
2022-10-18T14:57:10.273Z,209.50
2022-10-18T14:59:48.444Z,125.25
2022-10-18T15:02:24.605Z,172.25
2022-10-18T15:05:02.349Z,103.40
2022-10-18T15:07:36.492Z,115.80
2022-10-18T15:10:11.345Z,87.00
2022-10-18T15:13:08.049Z,102.00
2022-10-18T15:15:39.310Z,104.00
2022-10-18T15:18:19.223Z,146.20
2022-10-18T15:21:11.564Z,92.40
2022-10-18T15:23:43.491Z,91.20
2022-10-18T15:26:19.704Z,76.60
2022-10-18T15:29:11.298Z,106.40
2022-10-18T15:31:46.177Z,109.80
2022-10-18T15:34:22.583Z,91.80
2022-10-18T15:36:57.220Z,115.80
2022-10-18T15:39:32.023Z,137.00
2022-10-18T15:42:05.935Z,154.25
2022-10-18T15:44:50.274Z,124.80
2022-10-18T15:47:25.851Z,153.00
2022-10-18T15:49:59.808Z,142.20
2022-10-18T15:52:46.485Z,144.80
2022-10-18T15:55:51.123Z,269.25
2022-10-18T15:58:27.385Z,152.60
2022-10-18T16:01:03.351Z,153.00
2022-10-18T16:03:40.967Z,152.00
2022-10-18T16:06:18.030Z,142.00
2022-10-18T16:08:51.893Z,171.75
2022-10-18T16:11:25.610Z,224.00
2022-10-18T16:14:00.343Z,181.60
2022-10-18T16:16:33.406Z,136.00
2022-10-18T16:19:10.765Z,198.75
2022-10-18T16:21:43.729Z,182.50
2022-10-18T16:24:16.702Z,151.00
2022-10-18T16:26:48.856Z,252.25
2022-10-18T16:29:26.057Z,239.20
2022-10-18T16:31:59.515Z,196.25
2022-10-18T16:34:33.729Z,274.25
2022-10-18T16:37:05.667Z,239.80
2022-10-18T16:39:38.350Z,198.00
2022-10-18T16:42:11.335Z,214.00
2022-10-18T16:44:44.152Z,193.00
2022-10-18T16:47:15.836Z,174.50
2022-10-18T16:49:50.613Z,177.80
2022-10-18T16:52:23.347Z,185.00
2022-10-18T16:54:56.203Z,252.50
2022-10-18T16:57:28.108Z,218.00
2022-10-18T17:00:00.026Z,176.00
2022-10-18T17:02:32.678Z,143.25
2022-10-18T17:05:06.985Z,212.00
2022-10-18T17:07:39.364Z,147.00
2022-10-18T17:10:12.184Z,178.25
2022-10-18T17:12:44.574Z,276.50
2022-10-18T17:15:17.246Z,215.25
2022-10-18T17:17:51.390Z,143.60
2022-10-18T17:20:27.674Z,156.50
2022-10-18T17:22:59.420Z,158.00
2022-10-18T17:28:09.473Z,204.00
2022-10-18T17:30:42.170Z,268.00
2022-10-18T17:33:15.050Z,233.20
2022-10-18T17:35:49.040Z,277.80
2022-10-18T17:38:21.917Z,310.25
2022-10-18T17:40:54.965Z,289.80
2022-10-18T17:43:26.907Z,286.60
2022-10-18T17:45:59.968Z,312.60
2022-10-18T17:48:31.768Z,214.80
2022-10-18T17:51:10.555Z,287.50
2022-10-18T17:53:42.919Z,352.75
2022-10-18T17:56:16.053Z,275.00
2022-10-18T17:58:48.365Z,286.00
2022-10-18T18:01:22.277Z,186.75
2022-10-18T18:03:59.740Z,180.25
2022-10-18T18:06:35.550Z,170.33
2022-10-18T18:09:10.643Z,272.80
2022-10-18T18:11:44.839Z,272.00
2022-10-18T18:14:17.538Z,236.50
2022-10-18T18:16:50.372Z,182.75
2022-10-18T18:19:22.332Z,214.75
2022-10-18T18:21:56.559Z,288.20
2022-10-18T18:24:28.726Z,217.00
2022-10-18T18:27:01.500Z,185.50
2022-10-18T18:29:33.726Z,182.75
2022-10-18T18:32:05.654Z,196.00
2022-10-18T18:34:37.976Z,165.75
2022-10-18T18:37:12.594Z,176.00
2022-10-18T18:39:44.614Z,194.60
2022-10-18T18:42:17.252Z,190.25
2022-10-18T18:44:50.349Z,193.25
2022-10-18T18:47:24.870Z,199.50
2022-10-18T18:49:56.961Z,196.50
2022-10-18T18:52:30.456Z,183.25
2022-10-18T18:55:02.702Z,172.33
2022-10-18T18:57:35.314Z,186.33
2022-10-18T19:00:10.709Z,183.00
2022-10-18T19:02:43.237Z,202.00
2022-10-18T19:05:15.166Z,183.00
2022-10-18T19:07:48.992Z,168.00
2022-10-18T19:10:20.789Z,180.00
2022-10-18T19:12:52.704Z,185.75
2022-10-18T19:15:25.387Z,187.00
2022-10-18T19:17:59.651Z,177.33
2022-10-18T19:20:32.317Z,177.00
2022-10-18T19:23:06.376Z,206.50
2022-10-18T19:25:38.037Z,212.50
2022-10-18T19:28:10.325Z,186.00
2022-10-18T19:30:43.263Z,269.33
2022-10-18T19:33:41.065Z,246.00
2022-10-18T19:36:15.016Z,202.50
2022-10-18T19:38:48.756Z,260.75
2022-10-18T19:41:20.994Z,174.00
2022-10-18T19:43:53.634Z,216.50
2022-10-18T19:46:25.676Z,202.00
2022-10-18T19:48:58.155Z,183.00
2022-10-18T19:51:29.790Z,198.25
2022-10-18T19:54:03.151Z,180.33
2022-10-18T19:56:35.005Z,176.75
2022-10-18T19:59:07.277Z,154.25
2022-10-18T20:01:39.203Z,179.75
2022-10-18T20:04:13.863Z,167.00
2022-10-18T20:06:46.806Z,156.00
2022-10-18T20:09:20.965Z,171.00
2022-10-18T20:11:52.848Z,166.25
2022-10-18T20:14:25.052Z,206.00
2022-10-18T20:16:57.102Z,217.75
2022-10-18T20:19:28.898Z,208.75
2022-10-18T20:22:00.889Z,221.50
2022-10-18T20:24:35.106Z,146.00
2022-10-18T20:27:07.395Z,138.00
2022-10-18T20:29:39.225Z,151.00
2022-10-18T20:32:11.442Z,182.25
2022-10-18T20:34:44.127Z,189.50
2022-10-18T20:37:15.798Z,119.80
2022-10-18T20:39:49.615Z,133.80
2022-10-18T20:42:22.781Z,127.40
2022-10-18T20:44:55.017Z,136.60
2022-10-18T20:47:27.275Z,127.20
2022-10-18T20:49:59.079Z,135.50
2022-10-18T20:52:31.148Z,128.80
2022-10-18T20:55:04.897Z,200.67
2022-10-18T20:57:37.006Z,220.50
2022-10-18T21:00:11.566Z,128.80
2022-10-18T21:02:43.668Z,189.00
2022-10-18T21:05:15.519Z,167.75
2022-10-18T21:07:47.557Z,132.75
2022-10-18T21:10:21.492Z,136.25
2022-10-18T21:12:53.725Z,175.00
2022-10-18T21:15:25.780Z,157.00
2022-10-18T21:17:57.451Z,132.80
2022-10-18T21:20:29.228Z,137.00
2022-10-18T21:23:01.070Z,248.25
2022-10-18T21:25:34.316Z,299.00
2022-10-18T21:28:06.050Z,180.20
2022-10-18T21:30:38.083Z,325.60
2022-10-18T21:33:10.093Z,409.67
2022-10-18T21:35:43.272Z,409.50
2022-10-18T21:38:15.140Z,354.75
2022-10-18T21:40:49.494Z,384.67
2022-10-18T21:43:21.315Z,419.00
2022-10-18T21:45:53.799Z,427.25
2022-10-18T21:48:25.908Z,405.75
2022-10-18T21:50:58.236Z,396.33
2022-10-18T21:53:29.888Z,376.80
2022-10-18T21:56:08.862Z,423.33
2022-10-18T21:58:41.063Z,420.67
2022-10-18T22:01:14.618Z,379.67
2022-10-18T22:03:47.575Z,383.00
2022-10-18T22:06:20.276Z,408.00
2022-10-18T22:08:54.424Z,399.00
2022-10-18T22:11:32.208Z,414.33
2022-10-18T22:14:04.716Z,414.67
2022-10-18T22:16:36.362Z,385.00
2022-10-18T22:19:09.864Z,363.67
2022-10-18T22:21:41.962Z,393.00
2022-10-18T22:24:14.365Z,385.67
2022-10-18T22:26:49.297Z,407.00
2022-10-18T22:29:22.995Z,401.00
2022-10-18T22:31:56.857Z,409.00
2022-10-18T22:34:30.340Z,394.33
2022-10-18T22:37:02.034Z,314.20
2022-10-18T22:39:33.860Z,297.80
2022-10-18T22:42:07.884Z,408.67
2022-10-18T22:44:39.819Z,362.33
2022-10-18T22:47:12.050Z,393.00
2022-10-18T22:49:43.770Z,398.00
2022-10-18T22:52:15.383Z,413.33
2022-10-18T22:54:47.629Z,411.67
2022-10-18T22:57:22.085Z,397.00
2022-10-18T22:59:54.134Z,369.25
2022-10-18T23:02:25.915Z,394.33
2022-10-18T23:04:57.531Z,415.00
2022-10-18T23:07:29.571Z,415.00
2022-10-18T23:10:01.987Z,418.33
2022-10-18T23:12:35.660Z,387.00
2022-10-18T23:15:08.269Z,398.33
2022-10-18T23:17:39.985Z,387.00
2022-10-18T23:20:13.256Z,396.33
2022-10-18T23:22:44.954Z,304.20
2022-10-18T23:25:17.597Z,316.20
2022-10-18T23:27:51.797Z,332.60
2022-10-18T23:30:24.009Z,359.50
2022-10-18T23:32:55.791Z,315.60
2022-10-18T23:35:28.286Z,305.00
2022-10-18T23:38:00.096Z,325.75
2022-10-18T23:40:31.955Z,273.80
2022-10-18T23:43:05.223Z,322.40
2022-10-18T23:45:37.434Z,311.75
2022-10-18T23:48:09.372Z,352.75
2022-10-18T23:50:41.644Z,370.67
2022-10-18T23:53:13.524Z,336.25
2022-10-18T23:55:56.612Z,401.00
2022-10-18T23:58:31.911Z,390.60
